Terminal Aerodrome Forecast
Issued by NWS Upton, NY

Home | Current Version | Previous Version | Text Only | Print | Product List | Glossary On
Versions: 1 2 3 4 5 6 7 8 9 10 11 12 13 14 15 16 17 18 19 20 21 22 23 24 25 26
000
FTUS41 KOKX 011400 AAA
TAFISP
TAF AMD
KISP 011432Z 0115/0212 03012KT P6SM BKN008 OVC015
     FM011800 03012G18KT 6SM BR BKN008 OVC015
      TEMPO 0118/0120 -RA SCT008
     FM020200 02010KT P6SM OVC008=

USA.gov is the U.S. government's official web portal to all federal, state and local government web resources and services.